Hauptseite
METAR-TAF:

METAR-TAF

Flughäfen :

Flughafen Berlin-Schönefeld

Berlin-Schönefeld, Deutschland

Breite: 52-23N, Länge: 013-31E, Höhe: 47 m

Beobachtung

Neuester Wetterbericht von vor 13 Minuten, um 23:20 UTC
Wind 6 kt aus Süd/Südost
Temperatur 5°C
Luftfeuchtigkeit 81%
Luftdruck 1004 hPa
Sichtweite 10 km oder mehr
keine Wolken unter 1500 m und keine Kumulonimbus oder Gewitterwolken

METAR: EDDB 122320Z 15006KT CAVOK 05/02 Q1004 NOSIG

Zeit: 00:33 (23:33 UTC)

Prognose

Neuester Wetterbericht von vor 6 Stunden und 33 Minuten, um 17:00 UTC
Gültige Prognose vom 12 um 18 UTC bis 13 um 18 UTC
Wind 6 kt aus Süd/Südost
Sichtweite 10 km oder mehr
keine Wolken unter 1500 m und keine Kumulonimbus oder Gewitterwolken

TAF: EDDB 121700Z 1218/1318 16006KT CAVOK

Wetterbeobachtungen und Prognosen von mehr als 4000 Flughäfen (METAR und TAF Bericht).

Die verfügbaren Stationen werden durch gelbe und rote Markierungen auf der Karte dargestellt.

Führen Sie die Maus auf sie, um den Namen der Station zu sehen.

Darauf klicken, um die Beobachtung von Wetterbeobachtungen und Prognosen zu sehen.

Um die Karte zu ändern : klicken Sie auf den grünen Tasten mit einem schwarzen Kreuz Zum Vergrößern, auf den grünen Button mit einem Gedankenstrich zu verkleinern, oder auf die grünen Pfeile für benachbarte Karten.


METAR-TAF: